Time;durP1;ratioP1;P1;durP2;ratioP2;P2;SDS_P1;SDS_P2;PMS_P1;PMS_P2;Temp;Humidity;BMP_temperature;BMP_pressure;BME280_temperature;BME280_humidity;BME280_pressure;Samples;Min_cycle;Max_cycle;Signal;HPM_P1;HPM_P2
2024/02/16 00:00:50;;;;;;;4.13;3.70;;;12.50;99.90;;;;;;5072014;28;20028;-88
2024/02/16 00:03:15;;;;;;;8.70;3.20;;;12.50;99.90;;;;;;5072780;28;20103;-88
2024/02/16 00:05:41;;;;;;;6.70;3.28;;;13.30;99.90;;;;;;5074865;28;20115;-88
2024/02/16 00:08:09;;;;;;;5.00;3.60;;;12.50;99.90;;;;;;5089994;28;20028;-89
2024/02/16 00:10:35;;;;;;;4.82;2.97;;;13.60;99.90;;;;;;5087281;28;20046;-88
2024/02/16 00:13:06;;;;;;;4.00;3.60;;;13.60;99.90;;;;;;5072436;28;20028;-88
2024/02/16 00:15:32;;;;;;;5.38;3.35;;;12.30;99.90;;;;;;5071887;28;20088;-88
2024/02/16 00:17:58;;;;;;;4.75;3.33;;;12.70;99.90;;;;;;5089028;28;20425;-89
2024/02/16 00:20:39;;;;;;;3.88;3.00;;;12.40;99.90;;;;;;5074043;28;20127;-88
2024/02/16 00:23:19;;;;;;;3.45;2.78;;;12.90;99.90;;;;;;5071934;28;20140;-89
2024/02/16 00:25:45;;;;;;;4.82;2.80;;;12.40;99.90;;;;;;5072059;28;20050;-87
2024/02/16 00:28:17;;;;;;;5.35;2.95;;;12.40;99.90;;;;;;5072044;28;20103;-88
2024/02/16 00:30:42;;;;;;;3.65;3.15;;;12.40;99.90;;;;;;5086670;28;20024;-89
2024/02/16 00:33:09;;;;;;;4.30;3.72;;;12.90;99.90;;;;;;5072399;28;20036;-89
2024/02/16 00:35:35;;;;;;;4.57;3.53;;;12.40;99.90;;;;;;5075697;28;20043;-88
2024/02/16 00:38:00;;;;;;;8.70;3.40;;;13.20;99.90;;;;;;5090551;28;20456;-88
2024/02/16 00:40:43;;;;;;;3.88;3.47;;;12.30;99.90;;;;;;5086238;28;20060;-88
2024/02/16 00:43:09;;;;;;;4.50;3.42;;;12.50;99.90;;;;;;5071830;28;20336;-90
2024/02/16 00:45:35;;;;;;;6.00;3.45;;;13.30;99.90;;;;;;5071850;28;20021;-89
2024/02/16 00:48:01;;;;;;;6.20;3.92;;;13.30;99.90;;;;;;5108809;28;20367;-89
2024/02/16 00:50:27;;;;;;;7.55;3.35;;;12.20;99.90;;;;;;5102837;28;20044;-88
2024/02/16 00:53:04;;;;;;;7.00;3.55;;;12.40;99.90;;;;;;5077268;28;20072;-88
2024/02/16 00:55:30;;;;;;;4.65;3.22;;;12.20;99.90;;;;;;5073674;28;20032;-88
2024/02/16 00:57:56;;;;;;;3.42;3.10;;;12.20;99.90;;;;;;5074890;28;20505;-87
2024/02/16 01:00:23;;;;;;;4.03;3.35;;;12.20;99.90;;;;;;5093560;28;20027;-88
2024/02/16 01:02:49;;;;;;;3.58;3.28;;;12.10;99.90;;;;;;5092203;28;20016;-87
2024/02/16 01:05:17;;;;;;;5.53;3.75;;;12.10;99.90;;;;;;5091489;28;20497;-87
2024/02/16 01:07:43;;;;;;;6.30;3.40;;;12.10;99.90;;;;;;5092363;28;20032;-88
2024/02/16 01:10:09;;;;;;;3.50;3.20;;;12.10;99.90;;;;;;5102854;28;20123;-89
2024/02/16 01:12:35;;;;;;;6.25;4.28;;;12.00;99.90;;;;;;5070918;28;20020;-88
2024/02/16 01:15:01;;;;;;;5.07;3.55;;;12.30;99.90;;;;;;5072034;28;20490;-88
2024/02/16 01:17:26;;;;;;;6.53;3.47;;;12.40;99.90;;;;;;5073593;28;20032;-88
2024/02/16 01:19:52;;;;;;;4.03;3.50;;;12.20;99.90;;;;;;5074104;28;20036;-89
2024/02/16 01:22:18;;;;;;;6.53;3.53;;;12.60;99.90;;;;;;5073544;28;20051;-87
2024/02/16 01:24:44;;;;;;;4.75;3.67;;;12.00;99.90;;;;;;5078735;28;20024;-87
2024/02/16 01:27:10;;;;;;;4.15;3.75;;;11.90;99.90;;;;;;5081546;28;20415;-87
2024/02/16 01:29:36;;;;;;;5.55;3.38;;;11.90;99.90;;;;;;5086912;28;20020;-88
2024/02/16 01:32:03;;;;;;;8.25;3.55;;;12.20;99.90;;;;;;5082623;28;20376;-88
2024/02/16 01:34:43;;;;;;;3.65;3.35;;;11.90;99.90;;;;;;5076852;28;20017;-88
2024/02/16 01:37:09;;;;;;;3.83;3.22;;;11.90;99.90;;;;;;5075901;28;20052;-87
2024/02/16 01:39:35;;;;;;;4.00;3.35;;;12.10;99.90;;;;;;5074175;28;20480;-87
2024/02/16 01:42:00;;;;;;;7.40;3.22;;;11.90;99.90;;;;;;5081410;28;20356;-85
2024/02/16 01:44:41;;;;;;;7.35;3.70;;;12.00;99.90;;;;;;5095395;28;20066;-87
2024/02/16 01:47:06;;;;;;;;;;;11.90;99.90;;;;;;5095173;28;20053;-87
2024/02/16 01:49:45;;;;;;;4.68;3.03;;;12.60;99.90;;;;;;5099779;28;19908;-86
2024/02/16 01:52:11;;;;;;;5.38;3.10;;;11.80;99.90;;;;;;5074882;28;20036;-87
2024/02/16 01:54:37;;;;;;;7.07;3.63;;;12.40;99.90;;;;;;5075491;28;20029;-88
2024/02/16 01:57:10;;;;;;;5.80;3.13;;;12.00;99.90;;;;;;5074731;28;20487;-87
2024/02/16 01:59:40;;;;;;;3.67;3.33;;;11.80;99.90;;;;;;5074880;28;20089;-87
2024/02/16 02:02:05;;;;;;;3.95;3.60;;;11.90;99.90;;;;;;5074467;28;20025;-87
2024/02/16 02:04:31;;;;;;;4.20;3.00;;;11.90;99.90;;;;;;5074501;28;20495;-87
2024/02/16 02:06:57;;;;;;;5.50;3.33;;;11.90;99.90;;;;;;5073939;28;20031;-87
2024/02/16 02:09:22;;;;;;;7.60;3.65;;;11.90;99.90;;;;;;5074692;28;20028;-87
2024/02/16 02:11:48;;;;;;;4.35;3.28;;;11.90;99.90;;;;;;5086402;28;20028;-86
2024/02/16 02:14:14;;;;;;;3.45;3.15;;;11.90;99.90;;;;;;5079402;28;20131;-87
2024/02/16 02:16:40;;;;;;;4.95;3.40;;;12.30;99.90;;;;;;5093589;28;20115;-87
2024/02/16 02:19:05;;;;;;;4.70;3.25;;;11.80;99.90;;;;;;5095119;28;20032;-87
2024/02/16 02:21:31;;;;;;;6.25;3.83;;;11.80;99.90;;;;;;5087600;28;20471;-87
2024/02/16 02:23:57;;;;;;;4.18;3.40;;;12.30;99.90;;;;;;5074117;28;20024;-88
2024/02/16 02:26:22;;;;;;;7.25;3.50;;;11.80;99.90;;;;;;5078330;28;20070;-88
2024/02/16 02:28:48;;;;;;;5.50;3.60;;;11.80;99.90;;;;;;5073674;28;20020;-86
2024/02/16 02:31:13;;;;;;;8.68;3.55;;;12.70;99.90;;;;;;5077986;28;20115;-88
2024/02/16 02:33:57;;;;;;;6.32;3.42;;;11.80;99.90;;;;;;5094523;28;20348;-88
2024/02/16 02:36:23;;;;;;;5.32;3.42;;;11.80;99.90;;;;;;5093871;28;20028;-87
2024/02/16 02:38:49;;;;;;;4.88;3.97;;;11.80;99.90;;;;;;5093553;28;20047;-87
2024/02/16 02:41:20;;;;;;;6.00;2.80;;;11.80;99.90;;;;;;5079764;28;20044;-86
2024/02/16 02:43:46;;;;;;;4.53;3.08;;;11.80;99.90;;;;;;5073983;28;20051;-88
2024/02/16 02:46:16;;;;;;;5.38;3.92;;;11.80;99.90;;;;;;5073961;28;20468;-87
2024/02/16 02:48:43;;;;;;;5.72;2.97;;;11.80;99.90;;;;;;5075117;28;20037;-86
2024/02/16 02:51:18;;;;;;;3.85;3.25;;;11.80;99.90;;;;;;5093909;28;20020;-88
2024/02/16 02:53:43;;;;;;;5.43;3.22;;;11.80;99.90;;;;;;5102998;28;20036;-88
2024/02/16 02:56:09;;;;;;;3.45;3.03;;;12.90;99.90;;;;;;5086269;28;20027;-88
2024/02/16 02:58:35;;;;;;;3.25;2.95;;;11.80;99.90;;;;;;5093511;28;20036;-89
2024/02/16 03:01:00;;;;;;;6.13;3.58;;;11.80;99.90;;;;;;5094369;28;20460;-88
2024/02/16 03:03:26;;;;;;;5.78;3.50;;;11.80;99.90;;;;;;5093955;28;20475;-88
2024/02/16 03:05:52;;;;;;;3.95;3.22;;;11.80;99.90;;;;;;5093872;28;20028;-86
2024/02/16 03:08:17;;;;;;;4.32;3.50;;;11.80;99.90;;;;;;5093875;28;20024;-86
2024/02/16 03:10:44;;;;;;;5.07;3.20;;;11.90;99.90;;;;;;5092703;28;20032;-86
2024/02/16 03:13:12;;;;;;;8.43;3.78;;;11.90;99.90;;;;;;5093237;28;20472;-87
2024/02/16 03:15:38;;;;;;;4.13;3.22;;;11.90;99.90;;;;;;5093166;28;20055;-87
2024/02/16 03:18:08;;;;;;;3.40;2.78;;;12.50;99.90;;;;;;5089641;28;20048;-87
2024/02/16 03:20:33;;;;;;;6.38;3.70;;;11.90;99.90;;;;;;5093068;28;20032;-87
2024/02/16 03:23:08;;;;;;;4.90;3.75;;;11.80;99.90;;;;;;5090867;28;20028;-88
2024/02/16 03:25:34;;;;;;;7.03;3.20;;;11.80;99.90;;;;;;5092852;28;20089;-88
2024/02/16 03:28:02;;;;;;;3.85;3.28;;;12.30;99.90;;;;;;5093625;28;20475;-89
2024/02/16 03:30:28;;;;;;;3.90;3.30;;;11.80;99.90;;;;;;5093569;28;20026;-88
2024/02/16 03:32:57;;;;;;;4.00;3.42;;;11.80;99.90;;;;;;5092778;28;20471;-89
2024/02/16 03:35:22;;;;;;;4.35;3.13;;;11.80;99.90;;;;;;5093401;28;20027;-89
2024/02/16 03:37:48;;;;;;;5.40;3.33;;;11.80;99.90;;;;;;5075888;28;20459;-88
2024/02/16 03:40:22;;;;;;;5.20;3.60;;;12.20;99.90;;;;;;5072323;28;20060;-88
2024/02/16 03:42:48;;;;;;;5.28;3.47;;;12.30;99.90;;;;;;5073481;28;20017;-89
2024/02/16 03:45:14;;;;;;;5.32;3.35;;;11.90;99.90;;;;;;5073555;28;20060;-89
2024/02/16 03:47:42;;;;;;;6.63;3.50;;;11.80;99.90;;;;;;5086992;28;20028;-89
2024/02/16 03:50:08;;;;;;;4.45;3.35;;;11.80;99.90;;;;;;5092347;28;20016;-87
2024/02/16 03:52:34;;;;;;;5.57;3.63;;;11.80;99.90;;;;;;5091592;28;20039;-88
2024/02/16 03:54:59;;;;;;;6.55;3.72;;;11.80;99.90;;;;;;5088951;28;20035;-88
2024/02/16 03:57:26;;;;;;;5.38;3.58;;;11.80;99.90;;;;;;5079316;28;20024;-88
2024/02/16 03:59:51;;;;;;;3.47;3.15;;;11.80;99.90;;;;;;5092312;28;20036;-87
2024/02/16 04:02:17;;;;;;;3.97;3.65;;;12.20;99.90;;;;;;5092657;28;20016;-87
2024/02/16 04:04:42;;;;;;;5.03;3.72;;;11.80;99.90;;;;;;5092433;28;20028;-88
2024/02/16 04:07:08;;;;;;;3.88;3.38;;;11.80;99.90;;;;;;5092030;28;20467;-90
2024/02/16 04:09:34;;;;;;;4.45;3.17;;;11.80;99.90;;;;;;5107037;28;20024;-87
2024/02/16 04:12:01;;;;;;;7.63;3.75;;;11.80;99.90;;;;;;5091848;28;20028;-88
2024/02/16 04:14:26;;;;;;;4.40;3.35;;;12.10;99.90;;;;;;5091933;28;20039;-88
2024/02/16 04:16:52;;;;;;;3.88;3.25;;;11.80;99.90;;;;;;5093823;28;20738;-87
2024/02/16 04:19:18;;;;;;;4.95;3.20;;;11.90;99.90;;;;;;5093532;28;20043;-88
2024/02/16 04:21:43;;;;;;;5.57;3.63;;;11.80;99.90;;;;;;5092242;28;20027;-86
2024/02/16 04:24:09;;;;;;;5.60;3.20;;;11.80;99.90;;;;;;5092827;28;20059;-87
2024/02/16 04:26:35;;;;;;;5.38;3.08;;;11.90;99.90;;;;;;5077524;28;20059;-87
2024/02/16 04:29:01;;;;;;;3.90;3.40;;;12.10;99.90;;;;;;5100992;28;20020;-87
2024/02/16 04:31:26;;;;;;;3.70;3.13;;;11.80;99.90;;;;;;5084509;28;20040;-87
2024/02/16 04:33:53;;;;;;;4.38;3.40;;;11.80;99.90;;;;;;5071860;28;20051;-87
2024/02/16 04:36:18;;;;;;;4.00;3.40;;;12.50;99.90;;;;;;5089281;28;20024;-87
2024/02/16 04:38:44;;;;;;;3.30;3.00;;;11.80;99.90;;;;;;5091423;28;20445;-87
2024/02/16 04:41:10;;;;;;;5.20;3.72;;;12.00;99.90;;;;;;5080950;28;20025;-86
2024/02/16 04:43:36;;;;;;;3.92;3.53;;;11.70;99.90;;;;;;5071348;28;20036;-87
2024/02/16 04:46:02;;;;;;;5.68;3.65;;;11.80;99.90;;;;;;5071967;28;20021;-86
2024/02/16 04:48:28;;;;;;;6.88;3.42;;;11.70;99.90;;;;;;5071970;28;20186;-86
2024/02/16 04:50:54;;;;;;;4.20;3.42;;;11.80;99.90;;;;;;5079391;28;20027;-86
2024/02/16 04:53:20;;;;;;;3.33;3.00;;;11.80;99.90;;;;;;5071913;28;20036;-87
2024/02/16 04:55:45;;;;;;;4.63;3.30;;;11.80;99.90;;;;;;5070791;28;20028;-86
2024/02/16 04:58:11;;;;;;;4.90;3.72;;;11.80;99.90;;;;;;5071571;28;20064;-86
2024/02/16 05:00:37;;;;;;;6.78;3.38;;;11.80;99.90;;;;;;5073185;28;20028;-87
2024/02/16 05:03:03;;;;;;;4.57;3.70;;;12.10;99.90;;;;;;5074813;28;20572;-86
2024/02/16 05:05:28;;;;;;;5.88;3.10;;;11.80;99.90;;;;;;5075695;28;20108;-86
2024/02/16 05:07:54;;;;;;;4.50;3.25;;;11.80;99.90;;;;;;5075648;28;20031;-86
2024/02/16 05:10:20;;;;;;;3.50;3.20;;;11.80;99.90;;;;;;5075477;28;20067;-87
2024/02/16 05:12:46;;;;;;;4.63;3.38;;;11.80;99.90;;;;;;5077562;28;20066;-86
2024/02/16 05:15:14;;;;;;;4.22;3.63;;;11.80;99.90;;;;;;5115350;28;20035;-87
2024/02/16 05:17:40;;;;;;;5.63;3.60;;;11.80;99.90;;;;;;5096753;28;20017;-87
2024/02/16 05:20:15;;;;;;;10.07;3.78;;;12.00;99.90;;;;;;5092232;28;20027;-87
2024/02/16 05:22:45;;;;;;;9.35;3.33;;;11.80;99.90;;;;;;5095792;28;20032;-87
2024/02/16 05:25:14;;;;;;;3.60;3.30;;;11.80;99.90;;;;;;5094708;28;20483;-86
2024/02/16 05:27:40;;;;;;;4.70;3.65;;;11.80;99.90;;;;;;5095501;28;20035;-87
2024/02/16 05:30:09;;;;;;;4.05;3.75;;;11.80;99.90;;;;;;5095640;28;20104;-87
2024/02/16 05:32:36;;;;;;;5.97;3.97;;;11.80;99.90;;;;;;5094612;28;20495;-88
2024/02/16 05:35:14;;;;;;;3.90;3.50;;;11.80;99.90;;;;;;5095795;28;20020;-86
2024/02/16 05:37:43;;;;;;;3.70;3.13;;;11.80;99.90;;;;;;5095232;28;20360;-86
2024/02/16 05:40:24;;;;;;;4.47;3.38;;;11.80;99.90;;;;;;5102770;27;20511;-86
2024/02/16 05:42:51;;;;;;;8.88;3.85;;;11.90;99.90;;;;;;5074796;28;20380;-85
2024/02/16 05:45:17;;;;;;;6.60;3.63;;;11.80;99.90;;;;;;5073467;28;20484;-86
2024/02/16 05:47:45;;;;;;;4.90;3.47;;;11.90;99.90;;;;;;5074579;28;20113;-86
2024/02/16 05:50:11;;;;;;;5.68;4.10;;;11.90;99.90;;;;;;5074234;28;20048;-86
2024/02/16 05:52:41;;;;;;;5.05;3.53;;;11.90;99.90;;;;;;5074389;28;20100;-87
2024/02/16 05:55:08;;;;;;;11.93;4.03;;;11.90;99.90;;;;;;5074789;28;20533;-87
2024/02/16 05:57:34;;;;;;;5.72;3.65;;;11.90;99.90;;;;;;5078788;28;20087;-88
2024/02/16 06:00:00;;;;;;;5.75;4.45;;;11.90;99.90;;;;;;5077171;28;20413;-87
2024/02/16 06:02:27;;;;;;;4.80;4.32;;;12.30;99.90;;;;;;5095031;28;20056;-88
2024/02/16 06:04:53;;;;;;;4.30;3.50;;;12.00;99.90;;;;;;5095272;28;20821;-86
2024/02/16 06:07:18;;;;;;;5.90;3.70;;;12.00;99.90;;;;;;5083514;28;20021;-88
2024/02/16 06:09:44;;;;;;;5.25;4.10;;;12.00;99.90;;;;;;5085525;28;20085;-88
2024/02/16 06:12:09;;;;;;;7.07;4.15;;;12.00;99.90;;;;;;5088953;28;20032;-87
2024/02/16 06:14:36;;;;;;;6.68;3.97;;;12.40;99.90;;;;;;5073872;28;20452;-88
2024/02/16 06:17:03;;;;;;;6.63;4.13;;;12.10;99.90;;;;;;5078570;28;20067;-88
2024/02/16 06:19:29;;;;;;;5.82;3.63;;;12.00;99.90;;;;;;5090964;28;20042;-88
2024/02/16 06:21:54;;;;;;;4.20;3.67;;;12.70;99.90;;;;;;5101571;28;20020;-89
2024/02/16 06:24:21;;;;;;;5.10;3.50;;;12.00;99.90;;;;;;5078112;28;20361;-89
2024/02/16 06:26:48;;;;;;;5.45;3.95;;;12.10;99.90;;;;;;5078274;28;20021;-88
2024/02/16 06:29:13;;;;;;;6.07;3.67;;;12.10;99.90;;;;;;5074572;28;20043;-86
2024/02/16 06:31:39;;;;;;;4.63;3.65;;;12.10;99.90;;;;;;5077952;28;20099;-87
2024/02/16 06:34:05;;;;;;;6.53;4.22;;;12.10;99.90;;;;;;5094066;28;20055;-90
2024/02/16 06:36:30;;;;;;;5.82;3.90;;;12.10;99.90;;;;;;5095062;28;20483;-90
2024/02/16 06:38:56;;;;;;;6.28;3.63;;;12.10;99.90;;;;;;5091764;28;20058;-89
2024/02/16 06:41:21;;;;;;;5.95;3.65;;;12.10;99.90;;;;;;5095632;28;20483;-88
2024/02/16 06:43:47;;;;;;;5.88;4.32;;;12.10;99.90;;;;;;5090433;28;20116;-91
2024/02/16 06:46:12;;;;;;;5.07;4.55;;;12.10;99.90;;;;;;5086186;28;20024;-89
2024/02/16 06:48:38;;;;;;;4.43;4.03;;;12.20;99.90;;;;;;5093862;28;20020;-90
2024/02/16 06:51:03;;;;;;;4.30;3.85;;;12.10;99.90;;;;;;5094882;28;20421;-89
2024/02/16 06:53:29;;;;;;;4.82;3.95;;;12.10;99.90;;;;;;5094446;28;20490;-89
2024/02/16 06:55:55;;;;;;;8.93;4.65;;;12.10;99.90;;;;;;5093292;28;20016;-89
2024/02/16 06:58:20;;;;;;;6.32;4.35;;;12.20;99.90;;;;;;5094517;28;20055;-89
2024/02/16 07:00:46;;;;;;;5.03;3.97;;;12.10;99.90;;;;;;5094655;28;20085;-87
2024/02/16 07:03:12;;;;;;;5.20;4.10;;;12.10;99.90;;;;;;5091905;28;20048;-90
2024/02/16 07:05:39;;;;;;;7.13;4.30;;;12.20;99.90;;;;;;5079414;28;20036;-87
2024/02/16 07:08:07;;;;;;;10.57;4.50;;;12.10;99.90;;;;;;5094550;28;20032;-89
2024/02/16 07:10:33;;;;;;;4.95;4.30;;;12.10;99.90;;;;;;5088635;28;20025;-90
2024/02/16 07:12:58;;;;;;;6.88;4.75;;;12.20;99.90;;;;;;5094325;28;20093;-90
2024/02/16 07:15:26;;;;;;;5.75;4.72;;;12.10;99.90;;;;;;5090596;28;20475;-90
2024/02/16 07:17:51;;;;;;;11.30;4.93;;;12.30;99.90;;;;;;5093354;28;20077;-90
2024/02/16 07:20:18;;;;;;;7.97;5.10;;;12.30;99.90;;;;;;5093836;28;20048;-90
2024/02/16 07:22:46;;;;;;;7.97;5.10;;;12.20;99.90;;;;;;5093380;28;20036;-89
2024/02/16 07:25:12;;;;;;;6.07;4.45;;;12.20;99.90;;;;;;5091879;28;20375;-90
2024/02/16 07:27:38;;;;;;;7.80;4.82;;;12.20;99.90;;;;;;5097289;28;20087;-90
2024/02/16 07:30:04;;;;;;;7.25;4.68;;;12.90;99.90;;;;;;5090497;28;20114;-92
2024/02/16 07:32:30;;;;;;;10.68;4.90;;;12.20;99.90;;;;;;5090247;28;20076;-87
2024/02/16 07:34:55;;;;;;;7.63;4.60;;;12.90;99.90;;;;;;5077997;28;20478;-89
2024/02/16 07:37:21;;;;;;;10.95;5.40;;;12.30;99.90;;;;;;5091056;28;20021;-89
2024/02/16 07:39:46;;;;;;;7.40;4.78;;;12.30;99.90;;;;;;5091053;28;20175;-88
2024/02/16 07:42:12;;;;;;;8.57;5.40;;;12.30;99.90;;;;;;5094410;28;20019;-88
2024/02/16 07:44:38;;;;;;;6.65;5.18;;;12.30;99.90;;;;;;5080894;28;20071;-88
2024/02/16 07:47:04;;;;;;;7.10;5.43;;;12.30;99.90;;;;;;5090413;28;20028;-87
2024/02/16 07:49:30;;;;;;;7.43;5.65;;;12.30;99.90;;;;;;5103017;28;20130;-88
2024/02/16 07:51:56;;;;;;;6.88;5.68;;;12.40;99.90;;;;;;5080350;28;20111;-88
2024/02/16 07:54:21;;;;;;;15.02;5.78;;;12.40;99.90;;;;;;5081004;28;20024;-88
2024/02/16 07:56:47;;;;;;;7.88;5.05;;;12.30;99.90;;;;;;5073319;28;20021;-88
2024/02/16 07:59:13;;;;;;;7.55;5.15;;;12.40;99.90;;;;;;5073503;28;20039;-87
2024/02/16 08:01:38;;;;;;;8.82;5.65;;;12.80;99.90;;;;;;5102688;28;20151;-86
2024/02/16 08:04:04;;;;;;;7.53;5.15;;;12.40;99.90;;;;;;5093280;28;20032;-86
2024/02/16 08:06:30;;;;;;;6.93;5.10;;;12.40;99.90;;;;;;5088511;28;20092;-86
2024/02/16 08:08:55;;;;;;;5.95;4.93;;;12.90;99.90;;;;;;5088446;28;20114;-85
2024/02/16 08:11:22;;;;;;;7.55;5.43;;;12.40;99.90;;;;;;5094857;28;20016;-86
2024/02/16 08:13:47;;;;;;;8.23;4.70;;;12.40;99.90;;;;;;5102577;28;20062;-85
2024/02/16 08:16:13;;;;;;;6.47;5.03;;;12.70;99.90;;;;;;5099944;28;20023;-85
2024/02/16 08:18:38;;;;;;;11.07;4.95;;;12.50;99.90;;;;;;5080905;28;20062;-87
2024/02/16 08:21:04;;;;;;;5.97;4.90;;;12.50;99.90;;;;;;5089623;28;20031;-87
2024/02/16 08:23:31;;;;;;;8.90;5.38;;;12.50;99.90;;;;;;5092806;28;20024;-88
2024/02/16 08:25:57;;;;;;;11.55;5.57;;;12.60;99.90;;;;;;5102566;28;20036;-89
2024/02/16 08:28:22;;;;;;;10.70;5.43;;;12.60;99.90;;;;;;5092573;28;20020;-89
2024/02/16 08:30:48;;;;;;;7.90;5.13;;;13.10;99.90;;;;;;5088660;28;21094;-86
2024/02/16 08:33:13;;;;;;;8.07;5.03;;;12.60;99.90;;;;;;5088242;28;20039;-87
2024/02/16 08:35:39;;;;;;;7.07;5.25;;;12.60;99.90;;;;;;5072169;28;20372;-87
2024/02/16 08:38:05;;;;;;;11.45;5.53;;;12.60;99.90;;;;;;5071643;28;20063;-87
2024/02/16 08:40:30;;;;;;;8.88;5.78;;;12.70;99.90;;;;;;5071218;28;20047;-87
2024/02/16 08:42:57;;;;;;;8.23;5.88;;;12.70;99.90;;;;;;5093929;28;20100;-87
2024/02/16 08:45:22;;;;;;;10.43;6.45;;;12.90;99.90;;;;;;5092444;28;20032;-88
2024/02/16 08:47:48;;;;;;;10.02;5.65;;;12.70;99.90;;;;;;5097300;28;20020;-88
2024/02/16 08:50:14;;;;;;;10.88;5.50;;;12.70;99.90;;;;;;5097776;28;20491;-91
2024/02/16 08:52:39;;;;;;;14.18;5.70;;;12.70;99.90;;;;;;5092873;28;20067;-87
2024/02/16 08:55:05;;;;;;;7.55;4.97;;;12.70;99.90;;;;;;5087405;28;20048;-89
2024/02/16 08:57:33;;;;;;;9.45;5.03;;;12.80;99.90;;;;;;5076210;28;20033;-87
2024/02/16 08:59:59;;;;;;;10.07;5.32;;;12.30;99.90;;;;;;5090045;28;20036;-86
2024/02/16 09:02:24;;;;;;;13.07;5.93;;;12.80;99.90;;;;;;5090665;28;20028;-88
2024/02/16 09:04:50;;;;;;;9.02;6.22;;;12.70;99.90;;;;;;5091978;28;20024;-90
2024/02/16 09:07:16;;;;;;;6.82;6.00;;;12.70;99.90;;;;;;5092194;28;20108;-84
2024/02/16 09:09:41;;;;;;;8.75;5.55;;;12.70;99.90;;;;;;5090941;28;20028;-86
2024/02/16 09:12:07;;;;;;;8.98;5.65;;;12.70;99.90;;;;;;5092476;28;20119;-86
2024/02/16 09:14:32;;;;;;;8.00;6.38;;;12.70;99.90;;;;;;5089669;28;20110;-84
2024/02/16 09:16:58;;;;;;;11.15;5.47;;;12.70;99.90;;;;;;5088421;28;20059;-88
2024/02/16 09:19:24;;;;;;;9.63;5.63;;;12.70;99.90;;;;;;5092960;28;20038;-87
2024/02/16 09:21:51;;;;;;;8.85;6.28;;;12.80;99.90;;;;;;5091815;28;20020;-86
2024/02/16 09:24:18;;;;;;;10.55;5.38;;;12.80;99.90;;;;;;5084513;28;20085;-89
2024/02/16 09:26:46;;;;;;;9.93;6.55;;;12.80;99.90;;;;;;5071476;28;20031;-85
2024/02/16 09:29:15;;;;;;;6.68;5.60;;;13.00;99.90;;;;;;5070837;28;20112;-87
2024/02/16 09:31:41;;;;;;;7.82;5.93;;;12.70;99.90;;;;;;5070749;28;20099;-87
2024/02/16 09:34:07;;;;;;;11.55;6.63;;;12.70;99.90;;;;;;5071314;28;20029;-88
2024/02/16 09:36:32;;;;;;;7.20;6.47;;;12.70;99.90;;;;;;5076166;28;20028;-86
2024/02/16 09:38:58;;;;;;;9.50;5.75;;;12.70;99.90;;;;;;5104030;28;20058;-85
2024/02/16 09:41:24;;;;;;;12.88;5.82;;;12.70;99.90;;;;;;5083259;28;20055;-86
2024/02/16 09:43:53;;;;;;;9.60;5.70;;;12.30;99.90;;;;;;5092162;28;20016;-86
2024/02/16 09:46:21;;;;;;;7.30;5.63;;;12.70;99.90;;;;;;5092107;28;20078;-91
2024/02/16 09:48:52;;;;;;;12.82;6.63;;;12.70;99.90;;;;;;5089478;28;20500;-86
2024/02/16 09:51:18;;;;;;;10.40;6.53;;;12.70;99.90;;;;;;5074728;28;20039;-88
2024/02/16 09:53:51;;;;;;;11.57;7.03;;;13.10;99.90;;;;;;5076526;28;20029;-90
2024/02/16 09:56:17;;;;;;;15.20;7.43;;;12.60;99.90;;;;;;5077566;28;20099;-89
2024/02/16 09:58:43;;;;;;;7.85;6.22;;;12.60;99.90;;;;;;5085981;28;20570;-90
2024/02/16 10:01:19;;;;;;;17.55;6.82;;;12.50;99.90;;;;;;5095851;28;20035;-89
2024/02/16 10:03:45;;;;;;;8.02;5.82;;;12.50;99.90;;;;;;5093210;28;20024;-90
2024/02/16 10:06:11;;;;;;;9.57;6.95;;;12.50;99.90;;;;;;5089616;28;20027;-86
2024/02/16 10:08:50;;;;;;;11.10;7.25;;;12.50;99.90;;;;;;5074733;28;20107;-87
2024/02/16 10:11:18;;;;;;;12.98;8.05;;;12.50;99.90;;;;;;5076409;28;20517;-89
2024/02/16 10:14:00;;;;;;;10.95;7.90;;;12.60;99.90;;;;;;5086206;28;20032;-87
2024/02/16 10:16:29;;;;;;;13.48;8.23;;;12.40;99.90;;;;;;5087686;28;20037;-87
2024/02/16 10:18:57;;;;;;;15.55;9.27;;;12.40;99.90;;;;;;5086813;28;20040;-86
2024/02/16 10:21:29;;;;;;;16.50;8.90;;;12.70;99.90;;;;;;5093515;28;20050;-87
2024/02/16 10:24:16;;;;;;;10.38;8.27;;;12.30;99.90;;;;;;5097527;28;20028;-89
2024/02/16 10:26:42;;;;;;;16.63;9.35;;;12.30;99.90;;;;;;5076055;28;20039;-88
2024/02/16 10:29:13;;;;;;;17.33;9.95;;;12.20;99.90;;;;;;5075777;28;20033;-93
2024/02/16 10:31:39;;;;;;;17.45;10.38;;;12.70;99.90;;;;;;5075382;28;20021;-92
2024/02/16 10:34:05;;;;;;;21.67;11.02;;;12.00;99.90;;;;;;5090452;28;20024;-92
2024/02/16 10:36:37;;;;;;;20.60;11.88;;;12.00;99.90;;;;;;5107921;28;20458;-89
2024/02/16 10:39:05;;;;;;;20.48;11.52;;;12.00;99.90;;;;;;5096771;28;20553;-88
2024/02/16 10:41:39;;;;;;;20.63;11.70;;;12.50;99.90;;;;;;5093275;28;20144;-84
2024/02/16 10:44:05;;;;;;;27.83;13.13;;;11.90;99.90;;;;;;5081573;28;20025;-91
2024/02/16 10:46:32;;;;;;;26.85;12.73;;;11.80;99.90;;;;;;5073715;28;20036;-86
2024/02/16 10:48:58;;;;;;;16.77;10.93;;;11.80;99.90;;;;;;5082564;28;20024;-91
2024/02/16 10:51:46;;;;;;;18.92;11.88;;;11.80;99.90;;;;;;5094452;28;20055;-89
2024/02/16 10:54:14;;;;;;;20.83;11.50;;;11.80;99.90;;;;;;5088547;28;20028;-92
2024/02/16 10:56:40;;;;;;;22.27;12.70;;;11.80;99.90;;;;;;5093438;28;20024;-89
2024/02/16 10:59:09;;;;;;;21.65;12.65;;;11.80;99.90;;;;;;5093263;28;20036;-91
2024/02/16 11:01:42;;;;;;;21.20;12.10;;;11.80;99.90;;;;;;5098968;28;20119;-94
2024/02/16 11:04:11;;;;;;;20.85;12.52;;;11.80;99.90;;;;;;5093234;28;20029;-88
2024/02/16 11:06:53;;;;;;;17.02;11.15;;;11.80;99.90;;;;;;5081019;28;20390;-89
2024/02/16 11:09:35;;;;;;;18.48;11.18;;;11.80;99.90;;;;;;5092994;28;20103;-86
2024/02/16 11:12:12;;;;;;;17.10;11.15;;;11.80;99.90;;;;;;5094261;28;20063;-91
2024/02/16 11:14:54;;;;;;;13.07;11.30;;;11.80;99.90;;;;;;5092694;28;20028;-86
2024/02/16 11:17:22;;;;;;;13.85;11.35;;;12.50;99.90;;;;;;5092317;28;20024;-89
2024/02/16 11:19:48;;;;;;;14.10;11.75;;;12.40;99.90;;;;;;5089163;28;20033;-87
2024/02/16 11:22:18;;;;;;;19.10;12.10;;;11.80;99.90;;;;;;5087224;28;20268;-88
2024/02/16 11:24:47;;;;;;;22.65;13.32;;;11.90;99.90;;;;;;5081978;28;20077;-87
2024/02/16 11:27:21;;;;;;;22.33;11.68;;;11.80;99.90;;;;;;5099613;28;20031;-89
2024/02/16 11:29:46;;;;;;;14.07;11.38;;;11.80;99.90;;;;;;5093889;28;20063;-88
2024/02/16 11:32:12;;;;;;;18.83;12.65;;;11.80;99.90;;;;;;5094557;28;20024;-87
2024/02/16 11:34:38;;;;;;;21.60;13.48;;;11.80;99.90;;;;;;5075439;28;20029;-86
2024/02/16 11:37:07;;;;;;;20.90;13.00;;;11.70;99.90;;;;;;5090432;28;20180;-89
2024/02/16 11:39:36;;;;;;;23.35;13.95;;;12.00;99.90;;;;;;5093398;28;20443;-89
2024/02/16 11:42:12;;;;;;;22.52;14.05;;;11.80;99.90;;;;;;5086930;28;20017;-88
2024/02/16 11:44:39;;;;;;;16.63;13.05;;;11.80;99.90;;;;;;5077792;28;20033;-87
2024/02/16 11:47:14;;;;;;;17.73;11.43;;;11.70;99.90;;;;;;5093606;28;20623;-86
2024/02/16 11:49:41;;;;;;;11.52;10.35;;;11.70;99.90;;;;;;5081344;28;20024;-89
2024/02/16 11:52:07;;;;;;;11.43;9.93;;;11.70;99.90;;;;;;5093379;28;20043;-88
2024/02/16 11:54:33;;;;;;;10.38;7.85;;;11.60;99.90;;;;;;5091331;28;20463;-88
2024/02/16 11:56:59;;;;;;;12.13;8.35;;;11.60;99.90;;;;;;5096159;28;20034;-88
2024/02/16 11:59:39;;;;;;;8.20;7.47;;;11.60;99.90;;;;;;5097193;28;20040;-87
2024/02/16 12:02:05;;;;;;;10.27;7.37;;;11.50;99.90;;;;;;5099589;28;20425;-87
2024/02/16 12:04:31;;;;;;;6.47;5.88;;;13.00;99.90;;;;;;5109919;28;20175;-88
2024/02/16 12:07:02;;;;;;;9.57;6.70;;;12.10;99.90;;;;;;5084836;28;20422;-87
2024/02/16 12:09:34;;;;;;;9.27;7.05;;;11.50;99.90;;;;;;5072032;28;20033;-87
2024/02/16 12:12:00;;;;;;;7.57;6.55;;;11.50;99.90;;;;;;5089155;28;20024;-88
2024/02/16 12:14:25;;;;;;;8.13;5.88;;;11.60;99.90;;;;;;5092694;28;20481;-87
2024/02/16 12:17:00;;;;;;;8.07;6.28;;;12.20;99.90;;;;;;5084247;28;20506;-88
2024/02/16 12:19:25;;;;;;;6.05;5.45;;;11.60;99.90;;;;;;5079819;28;20028;-88
2024/02/16 12:21:52;;;;;;;7.78;5.55;;;11.60;99.90;;;;;;5092960;28;20020;-87
2024/02/16 12:24:21;;;;;;;8.98;5.28;;;11.60;99.90;;;;;;5094976;28;20032;-87
2024/02/16 12:26:47;;;;;;;6.35;5.20;;;11.90;99.90;;;;;;5076290;28;20031;-87
2024/02/16 12:29:13;;;;;;;6.05;4.72;;;11.70;99.90;;;;;;5087102;28;20024;-87
2024/02/16 12:31:41;;;;;;;7.68;4.72;;;11.80;99.90;;;;;;5086193;28;20102;-86
2024/02/16 12:34:07;;;;;;;5.30;4.80;;;11.80;99.90;;;;;;5073285;28;20028;-86
2024/02/16 12:36:34;;;;;;;6.50;4.65;;;11.90;99.90;;;;;;5071886;28;20120;-88
2024/02/16 12:39:00;;;;;;;5.18;4.18;;;11.90;99.90;;;;;;5084294;28;20056;-87
2024/02/16 12:41:26;;;;;;;4.05;3.60;;;11.90;99.90;;;;;;5100391;28;20127;-88
2024/02/16 12:44:05;;;;;;;7.15;4.50;;;12.00;99.90;;;;;;5091253;28;20123;-88